Sunday, May 27, 2018, 3:28 PM GMT
Back to Local

CXBO, Beauport CS, Que.

Location: , , Canada Lat: 46.833
Local Time: 3:28 PM GMT (15:28 GMT) Lon: -71.2
Time Zone: GMT Elev: 32 ft

Show me the last for .
Show Coded

Time T Td Feel RH Dir Speed Gust Alt SLP Vis Weather Sky Remarks
2018-05-27 13:00 - - - 0 80° 13 - - - 0 None
2018-05-27 12:00 - - - 0 60° 10 - - - 0 Peak wind: 21 mph (19 kts) from 40° at 03 min
2018-05-27 11:00 - - - 0 60° 14 - - - 0 Peak wind: 19 mph (17 kts) from 60° at 48 min
2018-05-27 10:00 - - - 0 50° 12 17 - - 0 None
2018-05-27 09:00 - - - 0 70° 10 - - - 0 None
2018-05-27 08:00 - - - 0 50° 10 - - - 0 None
2018-05-27 07:00 - - - 0 70° 12 - - - 0 None
2018-05-27 06:00 - - - 0 60° 12 - - - 0 Peak wind: 19 mph (17 kts) from 50° at 25 min
2018-05-27 05:00 - - - 0 60° 13 20 - - 0 Peak wind: 19 mph (17 kts) from 60° at 55 min
2018-05-27 04:00 - - - 0 80° 14 - - - 0 Peak wind: 21 mph (19 kts) from 80° at 07 min
2018-05-27 03:00 - - - 0 90° 15 - - - 0 Peak wind: 19 mph (17 kts) from 80° at 54 min
2018-05-27 02:00 - - - 0 90° 14 - - - 0 None
2018-05-27 01:00 - - - 0 60° 9 - - - 0 None
2018-05-27 00:00 - - - 0 80° 10 - - - 0 Peak wind: 19 mph (17 kts) from 80° at 20 min
2018-05-26 23:00 - - - 0 100° 12 18 - - 0 Peak wind: 23 mph (20 kts) from 100° at 12 min
2018-05-26 22:00 - - - 0 100° 13 20 - - 0 Peak wind: 20 mph (18 kts) from 130° at 30 min
2018-05-26 21:00 - - - 0 90° 14 - - - 0 None
2018-05-26 20:00 - - - 0 90° 10 - - - 0 None
2018-05-26 19:00 - - - 0 80° 10 - - - 0 None
2018-05-26 18:00 - - - 0 80° 6 - - - 0 None
2018-05-26 17:00 - - - 0 90° 7 - - - 0 None
2018-05-26 16:00 - - - 0 100° 8 - - - 0 None

Support USWX by starting your Amazon purchase here.